sensor_id;sensor_type;location;lat;lon;timestamp;temperature;humidity
30234;DHT22;17046;52.074;4.748;2022-12-29T00:02:11;11.00;99.90
30234;DHT22;17046;52.074;4.748;2022-12-29T00:04:37;10.90;99.90
30234;DHT22;17046;52.074;4.748;2022-12-29T00:07:03;11.00;99.90
30234;DHT22;17046;52.074;4.748;2022-12-29T00:09:30;11.00;99.90
30234;DHT22;17046;52.074;4.748;2022-12-29T00:11:56;11.00;99.90
30234;DHT22;17046;52.074;4.748;2022-12-29T00:14:22;11.00;99.90
30234;DHT22;17046;52.074;4.748;2022-12-29T00:17:06;11.00;99.90
30234;DHT22;17046;52.074;4.748;2022-12-29T00:19:32;11.00;99.90
30234;DHT22;17046;52.074;4.748;2022-12-29T00:22:16;11.00;99.90
30234;DHT22;17046;52.074;4.748;2022-12-29T00:25:00;11.10;99.90
30234;DHT22;17046;52.074;4.748;2022-12-29T00:27:45;11.10;99.90
30234;DHT22;17046;52.074;4.748;2022-12-29T00:30:29;11.10;99.90
30234;DHT22;17046;52.074;4.748;2022-12-29T00:33:15;11.10;99.90
30234;DHT22;17046;52.074;4.748;2022-12-29T00:36:15;11.10;99.90
30234;DHT22;17046;52.074;4.748;2022-12-29T00:38:53;11.10;99.90
30234;DHT22;17046;52.074;4.748;2022-12-29T00:41:39;11.10;99.90
30234;DHT22;17046;52.074;4.748;2022-12-29T00:44:23;12.50;99.90
30234;DHT22;17046;52.074;4.748;2022-12-29T00:46:49;11.20;99.90
30234;DHT22;17046;52.074;4.748;2022-12-29T00:49:14;11.20;99.90
30234;DHT22;17046;52.074;4.748;2022-12-29T00:52:01;11.10;99.90
30234;DHT22;17046;52.074;4.748;2022-12-29T00:54:35;11.20;99.90
30234;DHT22;17046;52.074;4.748;2022-12-29T00:57:02;11.10;99.90
30234;DHT22;17046;52.074;4.748;2022-12-29T00:59:28;11.00;99.90
30234;DHT22;17046;52.074;4.748;2022-12-29T01:01:54;10.90;99.90
30234;DHT22;17046;52.074;4.748;2022-12-29T01:04:21;10.80;99.90
30234;DHT22;17046;52.074;4.748;2022-12-29T01:06:47;10.70;99.90
30234;DHT22;17046;52.074;4.748;2022-12-29T01:09:13;10.70;99.90
30234;DHT22;17046;52.074;4.748;2022-12-29T01:11:58;10.60;99.90
30234;DHT22;17046;52.074;4.748;2022-12-29T01:14:23;10.50;99.90
30234;DHT22;17046;52.074;4.748;2022-12-29T01:16:49;10.50;99.90
30234;DHT22;17046;52.074;4.748;2022-12-29T01:19:16;10.40;99.90
30234;DHT22;17046;52.074;4.748;2022-12-29T01:21:42;10.50;99.90
30234;DHT22;17046;52.074;4.748;2022-12-29T01:24:08;10.50;99.90
30234;DHT22;17046;52.074;4.748;2022-12-29T01:26:34;10.50;99.90
30234;DHT22;17046;52.074;4.748;2022-12-29T01:28:59;10.50;99.90
30234;DHT22;17046;52.074;4.748;2022-12-29T01:31:25;10.40;99.90
30234;DHT22;17046;52.074;4.748;2022-12-29T01:33:50;10.40;99.90
30234;DHT22;17046;52.074;4.748;2022-12-29T01:36:17;10.50;99.90
30234;DHT22;17046;52.074;4.748;2022-12-29T01:38:43;10.50;99.90
30234;DHT22;17046;52.074;4.748;2022-12-29T01:41:10;10.50;99.90
30234;DHT22;17046;52.074;4.748;2022-12-29T01:43:44;10.50;99.90
30234;DHT22;17046;52.074;4.748;2022-12-29T01:46:34;10.50;99.90
30234;DHT22;17046;52.074;4.748;2022-12-29T01:49:05;10.50;99.90
30234;DHT22;17046;52.074;4.748;2022-12-29T01:51:50;10.50;99.90
30234;DHT22;17046;52.074;4.748;2022-12-29T01:54:21;10.50;99.90
30234;DHT22;17046;52.074;4.748;2022-12-29T01:56:48;10.40;99.90
30234;DHT22;17046;52.074;4.748;2022-12-29T01:59:19;10.30;99.90
30234;DHT22;17046;52.074;4.748;2022-12-29T02:01:46;10.40;99.90
30234;DHT22;17046;52.074;4.748;2022-12-29T02:04:12;10.40;99.90
30234;DHT22;17046;52.074;4.748;2022-12-29T02:06:46;10.40;99.90
30234;DHT22;17046;52.074;4.748;2022-12-29T02:09:13;10.30;99.90
30234;DHT22;17046;52.074;4.748;2022-12-29T02:11:38;10.50;99.90
30234;DHT22;17046;52.074;4.748;2022-12-29T02:14:11;10.30;99.90
30234;DHT22;17046;52.074;4.748;2022-12-29T02:17:04;10.40;99.90
30234;DHT22;17046;52.074;4.748;2022-12-29T02:35:52;10.50;99.90
30234;DHT22;17046;52.074;4.748;2022-12-29T02:38:37;10.50;99.90
30234;DHT22;17046;52.074;4.748;2022-12-29T02:41:29;10.50;99.90
30234;DHT22;17046;52.074;4.748;2022-12-29T02:43:59;10.60;99.90
30234;DHT22;17046;52.074;4.748;2022-12-29T02:46:41;10.60;99.90
30234;DHT22;17046;52.074;4.748;2022-12-29T02:49:18;10.60;99.90
30234;DHT22;17046;52.074;4.748;2022-12-29T02:52:08;10.70;99.90
30234;DHT22;17046;52.074;4.748;2022-12-29T02:54:36;10.80;99.90
30234;DHT22;17046;52.074;4.748;2022-12-29T02:59:36;10.90;99.90
30234;DHT22;17046;52.074;4.748;2022-12-29T03:02:39;10.90;99.90
30234;DHT22;17046;52.074;4.748;2022-12-29T03:11:00;10.80;99.90
30234;DHT22;17046;52.074;4.748;2022-12-29T03:16:29;10.60;99.90
30234;DHT22;17046;52.074;4.748;2022-12-29T03:19:04;10.60;99.90
30234;DHT22;17046;52.074;4.748;2022-12-29T03:21:47;10.50;99.90
30234;DHT22;17046;52.074;4.748;2022-12-29T03:24:36;10.50;99.90
30234;DHT22;17046;52.074;4.748;2022-12-29T03:27:05;10.50;99.90
30234;DHT22;17046;52.074;4.748;2022-12-29T03:29:36;10.70;99.90
30234;DHT22;17046;52.074;4.748;2022-12-29T03:32:05;10.70;99.90
30234;DHT22;17046;52.074;4.748;2022-12-29T03:34:33;10.70;99.90
30234;DHT22;17046;52.074;4.748;2022-12-29T03:37:14;10.70;99.90
30234;DHT22;17046;52.074;4.748;2022-12-29T03:39:41;10.70;99.90
30234;DHT22;17046;52.074;4.748;2022-12-29T03:42:13;10.60;99.90
30234;DHT22;17046;52.074;4.748;2022-12-29T03:44:42;10.60;99.90
30234;DHT22;17046;52.074;4.748;2022-12-29T03:47:10;10.70;99.90
30234;DHT22;17046;52.074;4.748;2022-12-29T03:49:36;10.60;99.90
30234;DHT22;17046;52.074;4.748;2022-12-29T03:52:02;10.60;99.90
30234;DHT22;17046;52.074;4.748;2022-12-29T03:54:29;10.60;99.90
30234;DHT22;17046;52.074;4.748;2022-12-29T03:56:54;10.70;99.90
30234;DHT22;17046;52.074;4.748;2022-12-29T03:59:20;10.70;99.90
30234;DHT22;17046;52.074;4.748;2022-12-29T04:01:45;10.60;99.90
30234;DHT22;17046;52.074;4.748;2022-12-29T04:04:11;10.60;99.90
30234;DHT22;17046;52.074;4.748;2022-12-29T04:06:37;10.50;99.90
30234;DHT22;17046;52.074;4.748;2022-12-29T04:09:03;10.50;99.90
30234;DHT22;17046;52.074;4.748;2022-12-29T04:11:28;10.50;99.90
30234;DHT22;17046;52.074;4.748;2022-12-29T04:13:54;10.50;99.90
30234;DHT22;17046;52.074;4.748;2022-12-29T04:16:19;10.50;99.90
30234;DHT22;17046;52.074;4.748;2022-12-29T04:18:45;10.50;99.90
30234;DHT22;17046;52.074;4.748;2022-12-29T04:21:10;10.50;99.90
30234;DHT22;17046;52.074;4.748;2022-12-29T04:23:37;10.50;96.80
30234;DHT22;17046;52.074;4.748;2022-12-29T04:26:04;10.50;94.80
30234;DHT22;17046;52.074;4.748;2022-12-29T04:28:32;10.50;99.70
30234;DHT22;17046;52.074;4.748;2022-12-29T04:30:58;10.40;99.90
30234;DHT22;17046;52.074;4.748;2022-12-29T04:33:23;10.40;99.90
30234;DHT22;17046;52.074;4.748;2022-12-29T04:35:49;10.30;99.90
30234;DHT22;17046;52.074;4.748;2022-12-29T04:38:15;10.20;99.90
30234;DHT22;17046;52.074;4.748;2022-12-29T04:40:42;10.20;99.90
30234;DHT22;17046;52.074;4.748;2022-12-29T04:43:09;10.10;99.90
30234;DHT22;17046;52.074;4.748;2022-12-29T04:45:35;10.10;99.90
30234;DHT22;17046;52.074;4.748;2022-12-29T04:48:01;10.10;99.90
30234;DHT22;17046;52.074;4.748;2022-12-29T04:50:26;10.10;99.90
30234;DHT22;17046;52.074;4.748;2022-12-29T04:52:52;10.10;99.90
30234;DHT22;17046;52.074;4.748;2022-12-29T04:55:17;10.10;99.90
30234;DHT22;17046;52.074;4.748;2022-12-29T04:57:43;10.10;99.90
30234;DHT22;17046;52.074;4.748;2022-12-29T05:00:09;10.00;99.90
30234;DHT22;17046;52.074;4.748;2022-12-29T05:02:36;10.10;99.90
30234;DHT22;17046;52.074;4.748;2022-12-29T05:05:02;10.10;99.90
30234;DHT22;17046;52.074;4.748;2022-12-29T05:07:28;10.10;99.90
30234;DHT22;17046;52.074;4.748;2022-12-29T05:09:54;10.00;99.90
30234;DHT22;17046;52.074;4.748;2022-12-29T05:12:19;10.00;99.90
30234;DHT22;17046;52.074;4.748;2022-12-29T05:14:45;9.90;99.90
30234;DHT22;17046;52.074;4.748;2022-12-29T05:17:10;9.80;99.90
30234;DHT22;17046;52.074;4.748;2022-12-29T05:19:36;9.80;99.90
30234;DHT22;17046;52.074;4.748;2022-12-29T05:22:01;9.70;99.90
30234;DHT22;17046;52.074;4.748;2022-12-29T05:24:27;9.70;99.90
30234;DHT22;17046;52.074;4.748;2022-12-29T05:26:52;9.60;99.90
30234;DHT22;17046;52.074;4.748;2022-12-29T05:29:18;9.60;99.90
30234;DHT22;17046;52.074;4.748;2022-12-29T05:31:44;9.50;99.90
30234;DHT22;17046;52.074;4.748;2022-12-29T05:34:11;9.50;99.90
30234;DHT22;17046;52.074;4.748;2022-12-29T05:36:36;9.50;99.90
30234;DHT22;17046;52.074;4.748;2022-12-29T05:39:02;9.40;99.90
30234;DHT22;17046;52.074;4.748;2022-12-29T05:41:27;9.40;99.90
30234;DHT22;17046;52.074;4.748;2022-12-29T05:43:53;9.40;99.90
30234;DHT22;17046;52.074;4.748;2022-12-29T05:46:19;9.40;99.90
30234;DHT22;17046;52.074;4.748;2022-12-29T05:48:44;9.40;99.90
30234;DHT22;17046;52.074;4.748;2022-12-29T05:51:10;9.40;99.90
30234;DHT22;17046;52.074;4.748;2022-12-29T05:53:35;9.50;99.90
30234;DHT22;17046;52.074;4.748;2022-12-29T05:56:01;9.50;99.90
30234;DHT22;17046;52.074;4.748;2022-12-29T05:58:26;9.60;99.90
30234;DHT22;17046;52.074;4.748;2022-12-29T06:00:52;9.70;99.90
30234;DHT22;17046;52.074;4.748;2022-12-29T06:03:17;9.70;99.90
30234;DHT22;17046;52.074;4.748;2022-12-29T06:05:45;9.60;99.90
30234;DHT22;17046;52.074;4.748;2022-12-29T06:08:11;9.60;99.90
30234;DHT22;17046;52.074;4.748;2022-12-29T06:10:36;9.50;99.90
30234;DHT22;17046;52.074;4.748;2022-12-29T06:13:02;9.40;99.90
30234;DHT22;17046;52.074;4.748;2022-12-29T06:15:33;9.30;99.90
30234;DHT22;17046;52.074;4.748;2022-12-29T06:17:59;9.20;99.90
30234;DHT22;17046;52.074;4.748;2022-12-29T06:20:24;9.20;99.90
30234;DHT22;17046;52.074;4.748;2022-12-29T06:22:50;9.20;99.90
30234;DHT22;17046;52.074;4.748;2022-12-29T06:25:16;9.10;99.90
30234;DHT22;17046;52.074;4.748;2022-12-29T06:27:41;9.10;99.90
30234;DHT22;17046;52.074;4.748;2022-12-29T06:30:08;9.20;99.90
30234;DHT22;17046;52.074;4.748;2022-12-29T06:32:34;9.10;99.90
30234;DHT22;17046;52.074;4.748;2022-12-29T06:35:00;9.20;99.90
30234;DHT22;17046;52.074;4.748;2022-12-29T06:37:25;9.20;99.90
30234;DHT22;17046;52.074;4.748;2022-12-29T06:39:51;9.30;99.90
30234;DHT22;17046;52.074;4.748;2022-12-29T06:42:16;9.20;99.90
30234;DHT22;17046;52.074;4.748;2022-12-29T06:44:42;9.20;99.90
30234;DHT22;17046;52.074;4.748;2022-12-29T06:47:08;9.30;99.90
30234;DHT22;17046;52.074;4.748;2022-12-29T06:49:33;9.40;99.90
30234;DHT22;17046;52.074;4.748;2022-12-29T06:51:59;9.50;99.90
30234;DHT22;17046;52.074;4.748;2022-12-29T06:54:26;9.50;99.90
30234;DHT22;17046;52.074;4.748;2022-12-29T06:56:52;9.40;99.90
30234;DHT22;17046;52.074;4.748;2022-12-29T06:59:17;9.40;99.90
30234;DHT22;17046;52.074;4.748;2022-12-29T07:01:43;9.40;99.90
30234;DHT22;17046;52.074;4.748;2022-12-29T07:04:08;9.40;99.90
30234;DHT22;17046;52.074;4.748;2022-12-29T07:06:34;9.30;99.90
30234;DHT22;17046;52.074;4.748;2022-12-29T07:08:59;9.30;99.90
30234;DHT22;17046;52.074;4.748;2022-12-29T07:11:25;9.20;99.90
30234;DHT22;17046;52.074;4.748;2022-12-29T07:13:51;9.20;99.90
30234;DHT22;17046;52.074;4.748;2022-12-29T07:16:16;9.20;99.90
30234;DHT22;17046;52.074;4.748;2022-12-29T07:18:42;9.30;99.90
30234;DHT22;17046;52.074;4.748;2022-12-29T07:21:08;9.30;99.90
30234;DHT22;17046;52.074;4.748;2022-12-29T07:23:34;9.40;99.90
30234;DHT22;17046;52.074;4.748;2022-12-29T07:26:04;9.30;99.90
30234;DHT22;17046;52.074;4.748;2022-12-29T07:28:31;9.20;99.90
30234;DHT22;17046;52.074;4.748;2022-12-29T07:30:58;9.30;99.90
30234;DHT22;17046;52.074;4.748;2022-12-29T07:33:23;9.20;99.90
30234;DHT22;17046;52.074;4.748;2022-12-29T07:35:49;9.20;99.90
30234;DHT22;17046;52.074;4.748;2022-12-29T07:38:15;9.30;99.90
30234;DHT22;17046;52.074;4.748;2022-12-29T07:40:42;9.40;99.90
30234;DHT22;17046;52.074;4.748;2022-12-29T07:43:07;9.40;99.90
30234;DHT22;17046;52.074;4.748;2022-12-29T07:45:33;9.50;99.90
30234;DHT22;17046;52.074;4.748;2022-12-29T07:47:58;9.50;99.90
30234;DHT22;17046;52.074;4.748;2022-12-29T07:50:24;9.50;99.90
30234;DHT22;17046;52.074;4.748;2022-12-29T07:52:49;9.60;99.90
30234;DHT22;17046;52.074;4.748;2022-12-29T07:55:16;9.60;99.90
30234;DHT22;17046;52.074;4.748;2022-12-29T07:57:41;9.70;99.90
30234;DHT22;17046;52.074;4.748;2022-12-29T08:00:08;9.70;99.90
30234;DHT22;17046;52.074;4.748;2022-12-29T08:02:35;9.70;99.90
30234;DHT22;17046;52.074;4.748;2022-12-29T08:05:00;9.70;99.90
30234;DHT22;17046;52.074;4.748;2022-12-29T08:07:26;9.70;99.90
30234;DHT22;17046;52.074;4.748;2022-12-29T08:09:51;9.80;99.90
30234;DHT22;17046;52.074;4.748;2022-12-29T08:12:17;9.80;99.90
30234;DHT22;17046;52.074;4.748;2022-12-29T08:14:43;9.80;98.20
30234;DHT22;17046;52.074;4.748;2022-12-29T08:17:09;9.80;99.90
30234;DHT22;17046;52.074;4.748;2022-12-29T08:19:35;9.80;99.90
30234;DHT22;17046;52.074;4.748;2022-12-29T08:22:01;9.70;99.90
30234;DHT22;17046;52.074;4.748;2022-12-29T08:24:27;9.70;99.90
30234;DHT22;17046;52.074;4.748;2022-12-29T08:26:52;9.60;99.90
30234;DHT22;17046;52.074;4.748;2022-12-29T08:29:18;9.50;99.90
30234;DHT22;17046;52.074;4.748;2022-12-29T08:31:44;9.40;99.90
30234;DHT22;17046;52.074;4.748;2022-12-29T08:34:10;9.40;99.90
30234;DHT22;17046;52.074;4.748;2022-12-29T08:36:36;9.30;99.90
30234;DHT22;17046;52.074;4.748;2022-12-29T08:39:02;9.30;99.90
30234;DHT22;17046;52.074;4.748;2022-12-29T08:41:28;9.30;99.90
30234;DHT22;17046;52.074;4.748;2022-12-29T08:43:53;9.30;99.90
30234;DHT22;17046;52.074;4.748;2022-12-29T08:46:19;9.30;99.90
30234;DHT22;17046;52.074;4.748;2022-12-29T08:48:45;9.20;99.90
30234;DHT22;17046;52.074;4.748;2022-12-29T08:51:10;9.30;99.90
30234;DHT22;17046;52.074;4.748;2022-12-29T08:53:36;9.30;99.90
30234;DHT22;17046;52.074;4.748;2022-12-29T08:56:03;9.30;99.90
30234;DHT22;17046;52.074;4.748;2022-12-29T08:58:29;9.20;99.90
30234;DHT22;17046;52.074;4.748;2022-12-29T09:00:56;9.20;99.90
30234;DHT22;17046;52.074;4.748;2022-12-29T09:03:23;9.10;99.90
30234;DHT22;17046;52.074;4.748;2022-12-29T09:05:50;9.10;99.90
30234;DHT22;17046;52.074;4.748;2022-12-29T09:08:17;9.00;99.90
30234;DHT22;17046;52.074;4.748;2022-12-29T09:10:43;9.00;99.90
30234;DHT22;17046;52.074;4.748;2022-12-29T09:13:10;9.00;99.90
30234;DHT22;17046;52.074;4.748;2022-12-29T09:15:35;9.00;99.90
30234;DHT22;17046;52.074;4.748;2022-12-29T09:18:01;9.00;99.90
30234;DHT22;17046;52.074;4.748;2022-12-29T09:20:27;9.00;99.90
30234;DHT22;17046;52.074;4.748;2022-12-29T09:22:52;9.00;99.90
30234;DHT22;17046;52.074;4.748;2022-12-29T09:25:19;9.00;99.90
30234;DHT22;17046;52.074;4.748;2022-12-29T09:27:45;9.00;99.90
30234;DHT22;17046;52.074;4.748;2022-12-29T09:30:12;9.00;99.90
30234;DHT22;17046;52.074;4.748;2022-12-29T09:32:39;8.90;99.90
30234;DHT22;17046;52.074;4.748;2022-12-29T09:35:05;8.90;99.90
30234;DHT22;17046;52.074;4.748;2022-12-29T09:37:31;9.00;99.90
30234;DHT22;17046;52.074;4.748;2022-12-29T09:39:57;9.00;99.90
30234;DHT22;17046;52.074;4.748;2022-12-29T09:42:40;9.00;99.90
30234;DHT22;17046;52.074;4.748;2022-12-29T09:45:18;9.00;99.90
30234;DHT22;17046;52.074;4.748;2022-12-29T09:47:46;9.00;99.90
30234;DHT22;17046;52.074;4.748;2022-12-29T09:50:26;9.10;99.90
30234;DHT22;17046;52.074;4.748;2022-12-29T09:53:01;9.20;99.90
30234;DHT22;17046;52.074;4.748;2022-12-29T09:55:37;9.20;99.90
30234;DHT22;17046;52.074;4.748;2022-12-29T09:58:06;9.20;99.90
30234;DHT22;17046;52.074;4.748;2022-12-29T10:00:59;9.30;99.90
30234;DHT22;17046;52.074;4.748;2022-12-29T10:03:48;9.40;99.90
30234;DHT22;17046;52.074;4.748;2022-12-29T10:06:30;9.40;99.90
30234;DHT22;17046;52.074;4.748;2022-12-29T10:09:38;9.50;99.90
30234;DHT22;17046;52.074;4.748;2022-12-29T10:23:32;9.60;99.90
30234;DHT22;17046;52.074;4.748;2022-12-29T10:25:59;9.60;99.90
30234;DHT22;17046;52.074;4.748;2022-12-29T10:28:40;9.60;99.90
30234;DHT22;17046;52.074;4.748;2022-12-29T10:31:16;9.70;99.90
30234;DHT22;17046;52.074;4.748;2022-12-29T10:33:50;9.80;99.90
30234;DHT22;17046;52.074;4.748;2022-12-29T10:36:20;9.80;99.90
30234;DHT22;17046;52.074;4.748;2022-12-29T10:39:05;9.80;99.90
30234;DHT22;17046;52.074;4.748;2022-12-29T10:41:41;9.70;99.90
30234;DHT22;17046;52.074;4.748;2022-12-29T10:44:14;9.60;99.90
30234;DHT22;17046;52.074;4.748;2022-12-29T10:46:41;9.60;99.90
30234;DHT22;17046;52.074;4.748;2022-12-29T10:49:16;9.60;99.90
30234;DHT22;17046;52.074;4.748;2022-12-29T10:51:44;9.70;99.90
30234;DHT22;17046;52.074;4.748;2022-12-29T10:54:17;9.80;99.90
30234;DHT22;17046;52.074;4.748;2022-12-29T10:56:47;9.90;99.90
30234;DHT22;17046;52.074;4.748;2022-12-29T10:59:23;10.00;99.90
30234;DHT22;17046;52.074;4.748;2022-12-29T11:07:05;10.30;99.90
30234;DHT22;17046;52.074;4.748;2022-12-29T11:09:34;10.30;99.90
30234;DHT22;17046;52.074;4.748;2022-12-29T11:14:43;10.40;99.90
30234;DHT22;17046;52.074;4.748;2022-12-29T11:17:15;10.40;99.90
30234;DHT22;17046;52.074;4.748;2022-12-29T11:19:42;10.50;99.90
30234;DHT22;17046;52.074;4.748;2022-12-29T11:22:25;10.60;99.90
30234;DHT22;17046;52.074;4.748;2022-12-29T11:24:52;10.50;99.90
30234;DHT22;17046;52.074;4.748;2022-12-29T11:27:23;10.60;99.90
30234;DHT22;17046;52.074;4.748;2022-12-29T11:29:51;10.70;99.90
30234;DHT22;17046;52.074;4.748;2022-12-29T11:32:25;10.80;99.90
30234;DHT22;17046;52.074;4.748;2022-12-29T11:34:51;10.80;99.90
30234;DHT22;17046;52.074;4.748;2022-12-29T11:37:19;10.50;99.90
30234;DHT22;17046;52.074;4.748;2022-12-29T11:42:17;10.20;99.90
30234;DHT22;17046;52.074;4.748;2022-12-29T11:44:46;10.10;99.90
30234;DHT22;17046;52.074;4.748;2022-12-29T11:47:26;10.00;99.90
30234;DHT22;17046;52.074;4.748;2022-12-29T11:49:55;10.10;99.90
30234;DHT22;17046;52.074;4.748;2022-12-29T11:52:24;10.00;99.90
30234;DHT22;17046;52.074;4.748;2022-12-29T11:54:51;10.00;99.90
30234;DHT22;17046;52.074;4.748;2022-12-29T11:57:17;9.90;99.90
30234;DHT22;17046;52.074;4.748;2022-12-29T11:59:55;9.90;99.90
30234;DHT22;17046;52.074;4.748;2022-12-29T12:02:43;9.90;99.90
30234;DHT22;17046;52.074;4.748;2022-12-29T12:05:44;10.00;99.90
30234;DHT22;17046;52.074;4.748;2022-12-29T12:08:14;9.90;99.90
30234;DHT22;17046;52.074;4.748;2022-12-29T12:13:28;9.90;99.90
30234;DHT22;17046;52.074;4.748;2022-12-29T12:18:49;9.90;99.90
30234;DHT22;17046;52.074;4.748;2022-12-29T12:21:32;9.90;99.90
30234;DHT22;17046;52.074;4.748;2022-12-29T12:26:59;10.00;99.90
30234;DHT22;17046;52.074;4.748;2022-12-29T12:32:20;10.30;99.90
30234;DHT22;17046;52.074;4.748;2022-12-29T12:34:48;10.30;99.90
30234;DHT22;17046;52.074;4.748;2022-12-29T12:37:48;10.30;99.90
30234;DHT22;17046;52.074;4.748;2022-12-29T12:54:31;10.30;91.60
30234;DHT22;17046;52.074;4.748;2022-12-29T12:57:11;10.30;85.30
30234;DHT22;17046;52.074;4.748;2022-12-29T13:00:11;10.30;93.10
30234;DHT22;17046;52.074;4.748;2022-12-29T13:10:58;10.30;99.90
30234;DHT22;17046;52.074;4.748;2022-12-29T13:16:56;10.30;99.90
30234;DHT22;17046;52.074;4.748;2022-12-29T13:20:12;10.30;99.90
30234;DHT22;17046;52.074;4.748;2022-12-29T13:27:53;10.30;99.90
30234;DHT22;17046;52.074;4.748;2022-12-29T13:30:39;10.30;99.90
30234;DHT22;17046;52.074;4.748;2022-12-29T13:33:27;10.40;99.90
30234;DHT22;17046;52.074;4.748;2022-12-29T13:36:08;10.40;99.90
30234;DHT22;17046;52.074;4.748;2022-12-29T13:38:42;10.40;99.90
30234;DHT22;17046;52.074;4.748;2022-12-29T13:41:19;10.40;99.90
30234;DHT22;17046;52.074;4.748;2022-12-29T13:43:47;10.40;99.90
30234;DHT22;17046;52.074;4.748;2022-12-29T13:46:21;10.40;99.90
30234;DHT22;17046;52.074;4.748;2022-12-29T13:49:02;10.30;99.90
30234;DHT22;17046;52.074;4.748;2022-12-29T13:51:30;10.40;99.90
30234;DHT22;17046;52.074;4.748;2022-12-29T13:54:22;10.40;97.70
30234;DHT22;17046;52.074;4.748;2022-12-29T13:59:36;10.30;99.90
30234;DHT22;17046;52.074;4.748;2022-12-29T14:07:56;9.60;99.90
30234;DHT22;17046;52.074;4.748;2022-12-29T14:10:47;9.50;99.90
30234;DHT22;17046;52.074;4.748;2022-12-29T14:15:44;9.30;99.90
30234;DHT22;17046;52.074;4.748;2022-12-29T14:18:21;9.20;99.90
30234;DHT22;17046;52.074;4.748;2022-12-29T14:20:52;9.10;99.90
30234;DHT22;17046;52.074;4.748;2022-12-29T14:23:39;9.20;99.90
30234;DHT22;17046;52.074;4.748;2022-12-29T14:26:12;9.20;99.90
30234;DHT22;17046;52.074;4.748;2022-12-29T14:28:43;9.20;99.90
30234;DHT22;17046;52.074;4.748;2022-12-29T14:37:00;9.20;99.90
30234;DHT22;17046;52.074;4.748;2022-12-29T14:39:44;9.20;99.90
30234;DHT22;17046;52.074;4.748;2022-12-29T14:42:12;9.10;99.90
30234;DHT22;17046;52.074;4.748;2022-12-29T14:44:53;9.20;99.90
30234;DHT22;17046;52.074;4.748;2022-12-29T14:47:35;9.20;99.90
30234;DHT22;17046;52.074;4.748;2022-12-29T14:50:06;9.30;99.90
30234;DHT22;17046;52.074;4.748;2022-12-29T14:55:37;9.40;99.90
30234;DHT22;17046;52.074;4.748;2022-12-29T14:58:27;9.40;99.90
30234;DHT22;17046;52.074;4.748;2022-12-29T15:00:52;9.40;99.90
30234;DHT22;17046;52.074;4.748;2022-12-29T15:03:19;9.50;99.90
30234;DHT22;17046;52.074;4.748;2022-12-29T15:05:57;9.40;99.90
30234;DHT22;17046;52.074;4.748;2022-12-29T15:08:33;9.40;99.90
30234;DHT22;17046;52.074;4.748;2022-12-29T15:11:17;9.40;99.90
30234;DHT22;17046;52.074;4.748;2022-12-29T15:13:44;9.50;99.90
30234;DHT22;17046;52.074;4.748;2022-12-29T15:16:31;9.50;99.90
30234;DHT22;17046;52.074;4.748;2022-12-29T15:18:58;9.50;99.90
30234;DHT22;17046;52.074;4.748;2022-12-29T15:21:27;9.50;99.90
30234;DHT22;17046;52.074;4.748;2022-12-29T15:23:52;9.50;99.90
30234;DHT22;17046;52.074;4.748;2022-12-29T15:26:19;9.50;99.90
30234;DHT22;17046;52.074;4.748;2022-12-29T15:28:50;9.40;99.90
30234;DHT22;17046;52.074;4.748;2022-12-29T15:31:19;9.50;99.90
30234;DHT22;17046;52.074;4.748;2022-12-29T15:33:48;9.40;99.90
30234;DHT22;17046;52.074;4.748;2022-12-29T15:36:25;9.40;99.90
30234;DHT22;17046;52.074;4.748;2022-12-29T15:38:51;9.40;99.90
30234;DHT22;17046;52.074;4.748;2022-12-29T15:41:25;9.40;99.90
30234;DHT22;17046;52.074;4.748;2022-12-29T15:46:33;9.40;99.90
30234;DHT22;17046;52.074;4.748;2022-12-29T15:48:58;9.40;99.90
30234;DHT22;17046;52.074;4.748;2022-12-29T15:51:35;9.40;99.90
30234;DHT22;17046;52.074;4.748;2022-12-29T15:54:02;9.40;99.90
30234;DHT22;17046;52.074;4.748;2022-12-29T15:56:29;9.40;99.90
30234;DHT22;17046;52.074;4.748;2022-12-29T15:58:55;9.40;99.90
30234;DHT22;17046;52.074;4.748;2022-12-29T16:01:34;9.40;99.90
30234;DHT22;17046;52.074;4.748;2022-12-29T16:04:04;9.30;99.90
30234;DHT22;17046;52.074;4.748;2022-12-29T16:12:00;9.20;99.90
30234;DHT22;17046;52.074;4.748;2022-12-29T16:14:33;9.10;99.90
30234;DHT22;17046;52.074;4.748;2022-12-29T16:17:02;9.10;99.90
30234;DHT22;17046;52.074;4.748;2022-12-29T16:19:39;9.00;99.90
30234;DHT22;17046;52.074;4.748;2022-12-29T16:22:16;8.90;99.90
30234;DHT22;17046;52.074;4.748;2022-12-29T16:24:42;8.90;99.90
30234;DHT22;17046;52.074;4.748;2022-12-29T16:27:21;8.90;99.90
30234;DHT22;17046;52.074;4.748;2022-12-29T16:29:53;8.80;99.90
30234;DHT22;17046;52.074;4.748;2022-12-29T16:32:29;8.80;99.90
30234;DHT22;17046;52.074;4.748;2022-12-29T16:35:15;8.80;99.90
30234;DHT22;17046;52.074;4.748;2022-12-29T16:37:41;8.80;99.90
30234;DHT22;17046;52.074;4.748;2022-12-29T16:40:27;8.80;99.90
30234;DHT22;17046;52.074;4.748;2022-12-29T16:42:58;8.80;99.90
30234;DHT22;17046;52.074;4.748;2022-12-29T16:48:21;8.70;99.90
30234;DHT22;17046;52.074;4.748;2022-12-29T16:50:49;8.70;99.90
30234;DHT22;17046;52.074;4.748;2022-12-29T16:53:29;8.70;99.90
30234;DHT22;17046;52.074;4.748;2022-12-29T16:56:02;8.70;99.90
30234;DHT22;17046;52.074;4.748;2022-12-29T16:58:28;8.70;99.90
30234;DHT22;17046;52.074;4.748;2022-12-29T17:00:58;8.60;99.90
30234;DHT22;17046;52.074;4.748;2022-12-29T17:03:34;8.50;99.90
30234;DHT22;17046;52.074;4.748;2022-12-29T17:06:03;8.50;99.90
30234;DHT22;17046;52.074;4.748;2022-12-29T17:08:28;8.50;99.90
30234;DHT22;17046;52.074;4.748;2022-12-29T17:10:56;8.50;99.90
30234;DHT22;17046;52.074;4.748;2022-12-29T17:13:40;8.50;99.90
30234;DHT22;17046;52.074;4.748;2022-12-29T17:16:07;8.50;99.90
30234;DHT22;17046;52.074;4.748;2022-12-29T17:18:34;8.50;99.90
30234;DHT22;17046;52.074;4.748;2022-12-29T17:21:00;8.40;99.90
30234;DHT22;17046;52.074;4.748;2022-12-29T17:23:26;8.30;99.90
30234;DHT22;17046;52.074;4.748;2022-12-29T17:25:54;8.30;99.90
30234;DHT22;17046;52.074;4.748;2022-12-29T17:28:28;8.30;99.90
30234;DHT22;17046;52.074;4.748;2022-12-29T17:30:59;8.20;99.90
30234;DHT22;17046;52.074;4.748;2022-12-29T17:33:26;8.20;99.90
30234;DHT22;17046;52.074;4.748;2022-12-29T17:35:53;8.20;99.90
30234;DHT22;17046;52.074;4.748;2022-12-29T17:38:27;8.20;99.90
30234;DHT22;17046;52.074;4.748;2022-12-29T17:40:53;8.20;99.90
30234;DHT22;17046;52.074;4.748;2022-12-29T17:43:19;8.20;99.90
30234;DHT22;17046;52.074;4.748;2022-12-29T17:45:48;8.30;99.90
30234;DHT22;17046;52.074;4.748;2022-12-29T17:48:16;8.30;99.90
30234;DHT22;17046;52.074;4.748;2022-12-29T17:50:42;8.40;99.90
30234;DHT22;17046;52.074;4.748;2022-12-29T17:53:20;8.30;99.90
30234;DHT22;17046;52.074;4.748;2022-12-29T17:55:46;8.30;99.90
30234;DHT22;17046;52.074;4.748;2022-12-29T17:58:19;8.20;99.90
30234;DHT22;17046;52.074;4.748;2022-12-29T18:00:47;8.10;99.90
30234;DHT22;17046;52.074;4.748;2022-12-29T18:03:21;8.10;99.90
30234;DHT22;17046;52.074;4.748;2022-12-29T18:05:47;8.10;99.90